22:06
Airports
History
Links
Donate
Help keep this website running!
PayPal
Bitcoin
This page is community maintained. The information is intended for PC simulator navigation or reference.
Always use approved charts for navigation.
EDGI
Ingelfingen Buehlhof
Ingelfingen Buehlhof (EDGI)
Ingelfingen, Baden-Wurttemberg, Germany (74653)
(U)
Lat/Lng:49° 19' 16" N / 9° 39' 22" E
49.32111 / 9.656111
Elevation:1375'ft / 419mMSL
ID / ICAO:EDGI
Runways:1
Longest:07-25
Asphalt 483m / 1,584ft
Nearby Weather21:20 GMT 2017-10-17
Nearby weather at ETHN, NIEDERSTETTEN located 14.4 nautical miles from EDGI
Altimeter: 30.09
Visibility: 6.2 statute miles
Wind: 4 knots (from 120°)
Temp: 12°c / 54°f
Humidity: 87.6%

METAR: ETHN 172120Z 12004KT 9999 SCT300 12/10 Q1019 BLU+

(Powered by phpweather)
Nearby VORs <50NM
Nearby NDBs
Runway 07 / 25
Dimensions:482.8 x 10.1m 1584' x 33'ft
Surface:Asphalt
Runway 07 [A]Runway 25 [B]
Heading:069°TH 249°TH
Lat:
Lng:
49° 19' 13.34"N
9° 39' 10.8"E
49° 19' 18.65"N
9° 39' 33.2"E
User Notes and Comments
49° 19' 16" N / 9° 39' 22" E
Distance To
Airport ID:
Nearby Airports
(C) NIEDERSTETTEN 14.4 NM
ETHN ( WX ) ENE 70°
(U) SCHWABISCH HALL 15.1 NM
EDTY SSE 157°
(U) Mosbach Lohrbach 24.7 NM
EDGM WNW 283°
(U) Rothenburg ob der Tauber 25.8 NM
EDFR E 79°
(C) Backnang-Heiningen 29.2 NM
EDSH SSW 198°
(C) Mainbullau 33.5 NM
EDFU NW 320°
(U) Wuerzburg Schenkenturm 36.0 NM
EDFW NNE 17°
VFR Chart
Flight Planning at SkyVector.com